Time;durP1;ratioP1;P1;durP2;ratioP2;P2;SDS_P1;SDS_P2;PMS_P1;PMS_P2;Temp;Humidity;BMP_temperature;BMP_pressure;BME280_temperature;BME280_humidity;BME280_pressure;Samples;Min_cycle;Max_cycle;Signal;HPM_P1;HPM_P2
2022/05/24 00:02:14;;;;;;;;;;;;;;;19.49;58.28;99178.28;5000372;28;6791;-76
2022/05/24 00:04:40;;;;;;;;;;;;;;;19.54;57.94;99183.44;5001384;28;6887;-76
2022/05/24 00:07:06;;;;;;;;;;;;;;;19.55;58.35;99175.66;4997900;28;6902;-76
2022/05/24 00:09:31;;;;;;;;;;;;;;;19.56;57.70;99173.94;5003332;28;6803;-76
2022/05/24 00:11:57;;;;;;;;;;;;;;;19.56;58.12;99164.38;5002723;28;6803;-76
2022/05/24 00:17:08;;;;;;;;;;;;;;;19.58;58.34;99177.38;5003771;28;7272;-75
2022/05/24 00:19:34;;;;;;;;;;;;;;;19.57;57.81;99173.91;4993611;28;7295;-75
2022/05/24 00:22:00;;;;;;;;;;;;;;;19.58;57.89;99174.78;5015926;28;6984;-75
2022/05/24 00:24:26;;;;;;;;;;;;;;;19.60;57.36;99169.53;5002359;28;7176;-75
2022/05/24 00:26:52;;;;;;;;;;;;;;;19.58;57.17;99166.97;5000722;28;6882;-75
2022/05/24 00:29:18;;;;;;;;;;;;;;;19.56;57.27;99181.72;5002937;28;7565;-75
2022/05/24 00:31:44;;;;;;;;;;;;;;;19.52;57.35;99167.03;5001143;28;6783;-75
2022/05/24 00:34:09;;;;;;;;;;;;;;;19.45;56.68;99174.00;5002434;28;6787;-75
2022/05/24 00:36:35;;;;;;;;;;;;;;;19.38;56.76;99175.81;5001576;28;6791;-75
2022/05/24 00:39:03;;;;;;;;;;;;;;;19.32;56.50;99177.59;5003271;28;7271;-75
2022/05/24 00:41:40;;;;;;;;;;;;;;;19.25;56.79;99184.53;5003509;28;6803;-75
2022/05/24 00:44:12;;;;;;;;;;;;;;;19.14;56.08;99185.47;5017525;28;7087;-75
2022/05/24 00:46:56;;;;;;;;;;;;;;;19.06;56.18;99187.25;5000986;28;6803;-75
2022/05/24 00:49:49;;;;;;;;;;;;;;;18.97;56.62;99198.53;5000122;28;7161;-75
2022/05/24 00:52:42;;;;;;;;;;;;;;;18.90;56.96;99201.19;5002333;28;6981;-75
2022/05/24 00:55:12;;;;;;;;;;;;;;;18.83;56.39;99188.22;4987871;28;7284;-75
2022/05/24 00:58:05;;;;;;;;;;;;;;;18.77;56.51;99188.25;4985838;28;6796;-75
2022/05/24 01:00:31;;;;;;;;;;;;;;;18.72;55.92;99192.63;5002025;28;7109;-75
2022/05/24 01:02:57;;;;;;;;;;;;;;;18.66;55.80;99201.28;4976286;28;8024;-75
2022/05/24 01:05:28;;;;;;;;;;;;;;;18.61;56.08;99200.44;4994148;28;7089;-75
2022/05/24 01:07:55;;;;;;;;;;;;;;;18.57;55.83;99201.34;4976135;28;7196;-75
2022/05/24 01:10:52;;;;;;;;;;;;;;;18.51;56.07;99193.56;5002331;28;6792;-75
2022/05/24 01:13:25;;;;;;;;;;;;;;;18.44;56.16;99190.97;4998910;28;6812;-75
2022/05/24 01:15:51;;;;;;;;;;;;;;;18.39;56.13;99197.94;5003848;28;6808;-75
2022/05/24 01:18:21;;;;;;;;;;;;;;;18.36;56.05;99197.94;4995358;28;6938;-75
2022/05/24 01:21:00;;;;;;;;;;;;;;;18.32;56.08;99185.84;4997626;28;6804;-75
2022/05/24 01:23:36;;;;;;;;;;;;;;;18.27;56.15;99188.44;5000117;28;6828;-75
2022/05/24 01:26:17;;;;;;;;;;;;;;;18.25;55.91;99197.09;5002013;28;7041;-75
2022/05/24 01:28:53;;;;;;;;;;;;;;;18.22;56.20;99189.34;5000470;28;8113;-75
2022/05/24 01:31:21;;;;;;;;;;;;;;;18.18;55.62;99204.91;4991508;28;7006;-75
2022/05/24 01:36:42;;;;;;;;;;;;;;;18.12;55.80;99198.88;5001075;28;7283;-75
2022/05/24 01:39:10;;;;;;;;;;;;;;;18.08;55.67;99194.56;5005115;28;6808;-75
2022/05/24 01:41:46;;;;;;;;;;;;;;;18.05;55.95;99198.00;5005485;28;7292;-75
2022/05/24 01:44:40;;;;;;;;;;;;;;;18.02;56.13;99205.75;4979968;28;6817;-75
2022/05/24 01:47:06;;;;;;;;;;;;;;;18.00;55.36;99197.13;4966172;28;7178;-75
2022/05/24 01:49:38;;;;;;;;;;;;;;;17.96;55.72;99201.47;5003633;28;6800;-75
2022/05/24 01:52:15;;;;;;;;;;;;;;;17.94;55.97;99202.31;4979867;28;6804;-75
2022/05/24 01:54:47;;;;;;;;;;;;;;;17.93;56.21;99204.06;4982490;28;7456;-75
2022/05/24 01:57:30;;;;;;;;;;;;;;;17.93;55.68;99198.88;4980690;28;6819;-75
2022/05/24 01:59:58;;;;;;;;;;;;;;;17.95;55.90;99201.44;4998008;28;8099;-75
2022/05/24 02:02:27;;;;;;;;;;;;;;;17.97;55.65;99203.19;5005070;28;7025;-75
2022/05/24 02:04:53;;;;;;;;;;;;;;;18.00;56.29;99205.75;5000829;28;6820;-75
2022/05/24 02:07:23;;;;;;;;;;;;;;;18.03;55.62;99215.25;5004995;28;6884;-75
2022/05/24 02:09:54;;;;;;;;;;;;;;;18.04;56.40;99217.03;5004160;28;6796;-75
2022/05/24 02:12:30;;;;;;;;;;;;;;;18.07;56.20;99218.75;5004861;28;6970;-75
2022/05/24 02:15:26;;;;;;;;;;;;;;;18.09;55.76;99214.41;4988421;28;6811;-75
2022/05/24 02:18:07;;;;;;;;;;;;;;;18.11;55.33;99208.38;4985056;28;7143;-75
2022/05/24 02:20:39;;;;;;;;;;;;;;;18.13;55.66;99211.81;5004166;28;7102;-75
2022/05/24 02:23:07;;;;;;;;;;;;;;;18.14;55.75;99207.50;5005699;28;6811;-75
2022/05/24 02:25:52;;;;;;;;;;;;;;;18.16;55.35;99196.28;5004661;28;6804;-76
2022/05/24 02:28:26;;;;;;;;;;;;;;;18.15;55.38;99188.50;5004650;28;6880;-76
2022/05/24 02:31:03;;;;;;;;;;;;;;;18.18;55.45;99183.28;5004262;28;7011;-76
2022/05/24 02:33:32;;;;;;;;;;;;;;;18.20;55.66;99178.09;4982846;28;6808;-76
2022/05/24 02:35:58;;;;;;;;;;;;;;;18.17;55.30;99168.59;5003510;28;6978;-76
2022/05/24 02:38:24;;;;;;;;;;;;;;;18.17;55.29;99168.59;4987758;28;7154;-76
2022/05/24 02:43:37;;;;;;;;;;;;;;;18.09;54.84;99168.63;5003701;28;7086;-75
2022/05/24 02:46:03;;;;;;;;;;;;;;;18.08;55.17;99177.28;5002932;28;6811;-75
2022/05/24 02:48:29;;;;;;;;;;;;;;;18.05;54.99;99177.25;5002706;28;6796;-75
2022/05/24 02:50:56;;;;;;;;;;;;;;;18.03;54.92;99189.34;4999500;28;6812;-75
2022/05/24 02:53:21;;;;;;;;;;;;;;;18.00;54.88;99185.03;4989760;28;6837;-75
2022/05/24 02:55:47;;;;;;;;;;;;;;;17.98;54.78;99170.34;5002985;28;7167;-75
2022/05/24 02:58:13;;;;;;;;;;;;;;;17.93;54.95;99166.91;5021112;28;6787;-75
2022/05/24 03:00:42;;;;;;;;;;;;;;;17.89;54.80;99171.22;5002474;28;6883;-75
2022/05/24 03:03:07;;;;;;;;;;;;;;;17.85;54.87;99172.09;4994949;28;7011;-75
2022/05/24 03:05:33;;;;;;;;;;;;;;;17.84;54.86;99165.19;5003145;28;6796;-75
2022/05/24 03:10:44;;;;;;;;;;;;;;;17.80;54.37;99159.16;5001837;28;7019;-75
2022/05/24 03:15:55;;;;;;;;;;;;;;;17.79;54.44;99170.38;5005699;28;7196;-75
2022/05/24 03:18:23;;;;;;;;;;;;;;;17.79;54.44;99160.03;5005964;28;6800;-75
2022/05/24 03:20:50;;;;;;;;;;;;;;;17.79;54.29;99151.38;5004429;28;7052;-75
2022/05/24 03:23:16;;;;;;;;;;;;;;;17.78;53.63;99153.13;4989825;28;7003;-75
2022/05/24 03:25:42;;;;;;;;;;;;;;;17.78;53.41;99158.28;5003987;28;6859;-75
2022/05/24 03:28:09;;;;;;;;;;;;;;;17.79;53.73;99167.78;4990023;28;7018;-75
2022/05/24 03:30:42;;;;;;;;;;;;;;;17.78;53.49;99168.66;5004652;28;7050;-75
2022/05/24 03:33:09;;;;;;;;;;;;;;;17.77;53.38;99172.13;4988327;28;7065;-75
2022/05/24 03:35:34;;;;;;;;;;;;;;;17.76;53.08;99165.19;4994918;28;7235;-75
2022/05/24 03:38:00;;;;;;;;;;;;;;;17.75;52.99;99177.28;5005353;28;6779;-75
2022/05/24 03:40:26;;;;;;;;;;;;;;;17.72;52.99;99185.09;4998485;28;7618;-75
2022/05/24 03:42:54;;;;;;;;;;;;;;;17.71;53.08;99188.50;5004284;28;6800;-75
2022/05/24 03:45:21;;;;;;;;;;;;;;;17.71;53.06;99193.69;4985680;28;7008;-75
2022/05/24 03:47:46;;;;;;;;;;;;;;;17.71;52.65;99198.03;5002765;28;6875;-75
2022/05/24 03:50:13;;;;;;;;;;;;;;;17.69;52.74;99192.00;5004132;28;6792;-75
2022/05/24 03:52:39;;;;;;;;;;;;;;;17.67;52.79;99197.16;4972677;28;6979;-75
2022/05/24 03:55:05;;;;;;;;;;;;;;;17.66;52.87;99199.75;4998012;28;7201;-76
2022/05/24 04:00:18;;;;;;;;;;;;;;;17.63;52.78;99211.00;5000372;28;7904;-76
2022/05/24 04:02:45;;;;;;;;;;;;;;;17.62;53.04;99217.00;5000812;28;6796;-76
2022/05/24 04:05:12;;;;;;;;;;;;;;;17.62;52.71;99225.66;5002629;28;6844;-76
2022/05/24 04:07:38;;;;;;;;;;;;;;;17.63;52.78;99229.13;4975934;28;7023;-76
2022/05/24 04:10:07;;;;;;;;;;;;;;;17.66;52.97;99236.00;5001243;28;7189;-76
2022/05/24 04:12:33;;;;;;;;;;;;;;;17.66;52.61;99239.47;4984881;28;6896;-75
2022/05/24 04:14:59;;;;;;;;;;;;;;;17.68;52.83;99253.28;5002939;28;6788;-75
2022/05/24 04:17:24;;;;;;;;;;;;;;;17.67;52.48;99236.03;5004280;28;6791;-75
2022/05/24 04:19:50;;;;;;;;;;;;;;;17.65;52.94;99223.94;5001556;28;6860;-75
2022/05/24 04:22:16;;;;;;;;;;;;;;;17.60;52.70;99227.41;5003950;28;6784;-75
2022/05/24 04:24:42;;;;;;;;;;;;;;;17.54;52.81;99248.09;4982414;28;6787;-75
2022/05/24 04:27:09;;;;;;;;;;;;;;;17.45;52.92;99246.38;4984006;28;7004;-75
2022/05/24 04:29:37;;;;;;;;;;;;;;;17.36;53.57;99259.31;5003545;28;7234;-75
2022/05/24 04:32:03;;;;;;;;;;;;;;;17.25;53.01;99261.88;5003667;28;6917;-75
2022/05/24 04:34:29;;;;;;;;;;;;;;;17.15;53.72;99273.06;5002084;28;6803;-75
2022/05/24 04:36:54;;;;;;;;;;;;;;;17.05;53.83;99274.78;5002387;28;7050;-75
2022/05/24 04:39:20;;;;;;;;;;;;;;;16.93;54.31;99289.34;5002823;28;6927;-75
2022/05/24 04:44:30;;;;;;;;;;;;;;;16.71;54.62;99280.63;5005728;28;6872;-75
2022/05/24 04:47:07;;;;;;;;;;;;;;;16.64;54.57;99289.22;5004179;28;6938;-74
2022/05/24 04:49:39;;;;;;;;;;;;;;;16.53;54.86;99291.72;5019737;28;6812;-74
2022/05/24 04:52:10;;;;;;;;;;;;;;;16.44;55.60;99305.47;4998686;28;7188;-74
2022/05/24 04:54:41;;;;;;;;;;;;;;;16.37;55.42;99309.75;4987392;28;6911;-74
2022/05/24 04:57:08;;;;;;;;;;;;;;;16.29;55.84;99314.00;4987040;28;7183;-74
2022/05/24 04:59:35;;;;;;;;;;;;;;;16.23;56.30;99321.69;4987170;28;7271;-74
2022/05/24 05:02:02;;;;;;;;;;;;;;;16.17;56.61;99324.22;5001233;28;7019;-74
2022/05/24 05:04:28;;;;;;;;;;;;;;;16.13;56.88;99331.13;4981751;28;7019;-74
2022/05/24 05:06:54;;;;;;;;;;;;;;;16.07;57.46;99328.47;5003174;28;7040;-74
2022/05/24 05:09:19;;;;;;;;;;;;;;;16.05;56.94;99325.00;5007911;28;6787;-75
2022/05/24 05:11:46;;;;;;;;;;;;;;;16.00;57.58;99337.00;5000236;28;6800;-75
2022/05/24 05:14:12;;;;;;;;;;;;;;;15.96;57.66;99336.13;5005660;28;7195;-75
2022/05/24 05:16:40;;;;;;;;;;;;;;;15.93;57.92;99331.81;4990750;28;6987;-75
2022/05/24 05:19:09;;;;;;;;;;;;;;;15.90;58.21;99341.22;4988166;28;6891;-75
2022/05/24 05:21:38;;;;;;;;;;;;;;;15.88;58.04;99343.78;5005348;28;7199;-75
2022/05/24 05:24:07;;;;;;;;;;;;;;;15.85;58.11;99333.44;4979724;28;7038;-75
2022/05/24 05:26:33;;;;;;;;;;;;;;;15.85;58.18;99329.97;5021417;28;7455;-74
2022/05/24 05:28:59;;;;;;;;;;;;;;;15.85;58.40;99340.28;4980925;28;6875;-75
2022/05/24 05:31:26;;;;;;;;;;;;;;;15.83;58.20;99348.03;5000663;28;6946;-75
2022/05/24 05:33:58;;;;;;;;;;;;;;;15.83;58.58;99345.44;5001234;28;7817;-74
2022/05/24 05:36:27;;;;;;;;;;;;;;;15.80;58.50;99346.28;4997196;28;6808;-74
2022/05/24 05:38:55;;;;;;;;;;;;;;;15.81;58.57;99349.72;5006435;28;6974;-74
2022/05/24 05:41:31;;;;;;;;;;;;;;;15.81;58.69;99353.19;4987516;28;6958;-74
2022/05/24 05:43:59;;;;;;;;;;;;;;;15.85;58.84;99359.25;5006908;28;6804;-75
2022/05/24 05:46:26;;;;;;;;;;;;;;;15.89;58.80;99360.16;4994886;28;6804;-75
2022/05/24 05:48:52;;;;;;;;;;;;;;;15.91;59.00;99361.91;4982148;28;7228;-75
2022/05/24 05:51:19;;;;;;;;;;;;;;;15.95;58.59;99366.28;5007266;28;6783;-75
2022/05/24 05:53:45;;;;;;;;;;;;;;;16.00;58.96;99368.03;4978084;28;7191;-75
2022/05/24 05:56:20;;;;;;;;;;;;;;;16.02;58.59;99371.50;5003052;28;7726;-74
2022/05/24 05:58:50;;;;;;;;;;;;;;;16.03;58.61;99368.03;5004180;28;7310;-74
2022/05/24 06:01:20;;;;;;;;;;;;;;;16.05;58.66;99368.94;5002310;28;7014;-74
2022/05/24 06:03:46;;;;;;;;;;;;;;;16.08;58.35;99374.13;5004539;28;6815;-74
2022/05/24 06:06:28;;;;;;;;;;;;;;;16.11;58.46;99381.91;4985300;28;7198;-74
2022/05/24 06:08:54;;;;;;;;;;;;;;;16.14;58.65;99383.66;4992757;28;6807;-74
2022/05/24 06:11:20;;;;;;;;;;;;;;;16.18;58.35;99393.19;5000667;28;7255;-74
2022/05/24 06:13:46;;;;;;;;;;;;;;;16.21;58.27;99399.22;5002917;28;6795;-74
2022/05/24 06:16:13;;;;;;;;;;;;;;;16.24;58.59;99409.63;5002099;28;7027;-74
2022/05/24 06:18:39;;;;;;;;;;;;;;;16.28;58.62;99409.63;5006177;28;7244;-74
2022/05/24 06:21:05;;;;;;;;;;;;;;;16.34;58.75;99404.53;5004670;28;7048;-74
2022/05/24 06:23:31;;;;;;;;;;;;;;;16.43;58.89;99412.38;5005566;28;7148;-74
2022/05/24 06:25:57;;;;;;;;;;;;;;;16.56;58.91;99417.63;5003154;28;6896;-74
2022/05/24 06:28:23;;;;;;;;;;;;;;;16.68;58.78;99420.28;4979310;28;7012;-74
2022/05/24 06:30:48;;;;;;;;;;;;;;;16.78;58.59;99418.66;5006082;28;6836;-74
2022/05/24 06:33:14;;;;;;;;;;;;;;;16.87;58.19;99413.53;5001765;28;6962;-74
2022/05/24 06:35:41;;;;;;;;;;;;;;;16.94;58.20;99420.47;5004366;28;6807;-74
2022/05/24 06:38:08;;;;;;;;;;;;;;;17.01;57.57;99421.44;4981042;28;7134;-74
2022/05/24 06:40:34;;;;;;;;;;;;;;;17.08;57.60;99430.94;4999558;28;6812;-74
2022/05/24 06:43:01;;;;;;;;;;;;;;;17.16;57.48;99431.00;5006728;28;6868;-74
2022/05/24 06:45:26;;;;;;;;;;;;;;;17.23;57.39;99426.72;5020124;28;7406;-74
2022/05/24 06:47:52;;;;;;;;;;;;;;;17.25;56.83;99437.94;5007106;28;7194;-74
2022/05/24 06:50:18;;;;;;;;;;;;;;;17.26;57.13;99450.03;5004143;28;7166;-74
2022/05/24 06:52:45;;;;;;;;;;;;;;;17.26;57.02;99455.19;5004180;28;6966;-74
2022/05/24 06:55:11;;;;;;;;;;;;;;;17.31;56.52;99460.41;5004521;28;6804;-74
2022/05/24 06:57:37;;;;;;;;;;;;;;;17.37;56.37;99459.56;5006851;28;6796;-74
2022/05/24 07:03:04;;;;;;;;;;;;;;;17.63;57.04;99465.75;5005355;28;7269;-74
2022/05/24 07:05:30;;;;;;;;;;;;;;;17.83;56.75;99456.31;5001152;28;7717;-74
2022/05/24 07:07:58;;;;;;;;;;;;;;;18.00;56.22;99465.00;4996260;28;7023;-74
2022/05/24 07:10:24;;;;;;;;;;;;;;;18.11;55.92;99457.28;5002464;28;6969;-74
2022/05/24 07:13:03;;;;;;;;;;;;;;;18.24;55.97;99465.94;5006070;28;7003;-74
2022/05/24 07:15:30;;;;;;;;;;;;;;;18.34;55.71;99461.63;4999485;28;6815;-74
2022/05/24 07:17:56;;;;;;;;;;;;;;;18.56;55.58;99466.84;5002005;28;6849;-74
2022/05/24 07:20:25;;;;;;;;;;;;;;;18.85;55.88;99466.81;5000400;28;7872;-74
2022/05/24 07:22:52;;;;;;;;;;;;;;;19.17;55.09;99465.09;5002964;28;6816;-74
2022/05/24 07:25:18;;;;;;;;;;;;;;;19.42;54.88;99465.03;5002249;28;6899;-74
2022/05/24 07:27:44;;;;;;;;;;;;;;;19.56;53.28;99471.03;5000590;28;7252;-74
2022/05/24 07:30:10;;;;;;;;;;;;;;;19.61;53.41;99468.41;5000359;28;6866;-74
2022/05/24 07:32:36;;;;;;;;;;;;;;;19.68;53.67;99469.25;5004336;28;6815;-74
2022/05/24 07:35:04;;;;;;;;;;;;;;;19.88;54.17;99473.47;5002969;28;6949;-75
2022/05/24 07:37:30;;;;;;;;;;;;;;;20.11;53.11;99463.88;5002628;28;7302;-75
2022/05/24 07:48:11;;;;;;;;;;;;;;;20.89;50.20;99471.09;4985182;28;7013;-75
2022/05/24 07:50:38;;;;;;;;;;;;;;;20.80;49.53;99463.34;5004572;28;6960;-75
2022/05/24 07:53:03;;;;;;;;;;;;;;;20.84;50.35;99459.00;5002020;28;6994;-75
2022/05/24 07:55:29;;;;;;;;;;;;;;;20.92;50.02;99471.06;5002727;28;7280;-75
2022/05/24 07:57:55;;;;;;;;;;;;;;;21.12;49.82;99464.78;5001730;28;7207;-76
2022/05/24 08:00:21;;;;;;;;;;;;;;;21.32;49.17;99476.75;5002008;28;6780;-75
2022/05/24 08:02:52;;;;;;;;;;;;;;;21.34;47.87;99474.97;5003421;28;6792;-75
2022/05/24 08:05:20;;;;;;;;;;;;;;;21.27;47.40;99478.56;4998170;28;7640;-75
2022/05/24 08:07:46;;;;;;;;;;;;;;;21.13;46.83;99482.16;4999053;28;6816;-75
2022/05/24 08:10:13;;;;;;;;;;;;;;;21.07;47.27;99496.09;5000874;28;6796;-75
2022/05/24 08:12:39;;;;;;;;;;;;;;;21.13;47.49;99495.19;5002853;28;6959;-76
2022/05/24 08:15:06;;;;;;;;;;;;;;;21.21;47.35;99516.81;5000822;28;7233;-76
2022/05/24 08:17:34;;;;;;;;;;;;;;;21.23;47.11;99515.03;5001798;28;6827;-76
2022/05/24 08:20:00;;;;;;;;;;;;;;;21.13;46.00;99518.63;5000869;28;6807;-76
2022/05/24 08:22:26;;;;;;;;;;;;;;;20.95;45.99;99519.66;4994211;28;6807;-75
2022/05/24 08:24:52;;;;;;;;;;;;;;;20.80;46.45;99518.88;4992643;28;6974;-75
2022/05/24 08:27:17;;;;;;;;;;;;;;;20.73;46.72;99531.97;4992599;28;6879;-75
2022/05/24 08:29:46;;;;;;;;;;;;;;;20.59;46.44;99527.72;5000501;28;6866;-75
2022/05/24 08:32:12;;;;;;;;;;;;;;;20.56;46.88;99530.34;5002487;28;7278;-75
2022/05/24 08:34:38;;;;;;;;;;;;;;;20.58;46.58;99538.16;5001063;28;7226;-75
2022/05/24 08:37:06;;;;;;;;;;;;;;;20.62;46.68;99532.91;5000747;28;6820;-75
2022/05/24 08:39:32;;;;;;;;;;;;;;;20.72;47.55;99544.13;4975016;28;7078;-75
2022/05/24 08:42:19;;;;;;;;;;;;;;;21.12;47.34;99537.75;5016448;28;6784;-75
2022/05/24 08:48:27;;;;;;;;;;;;;;;22.12;45.16;99528.84;4999602;28;7316;-76
2022/05/24 08:51:35;;;;;;;;;;;;;;;22.12;43.67;99521.88;4995822;28;6899;-76
2022/05/24 08:54:16;;;;;;;;;;;;;;;21.95;43.11;99545.56;5001913;28;6812;-76
2022/05/24 08:56:56;;;;;;;;;;;;;;;21.71;42.82;99541.53;5003959;28;6820;-76
2022/05/24 08:59:52;;;;;;;;;;;;;;;21.40;43.07;99550.50;5000250;28;6876;-76
2022/05/24 09:02:20;;;;;;;;;;;;;;;21.29;43.95;99549.75;4997579;28;6924;-76
2022/05/24 09:04:45;;;;;;;;;;;;;;;21.27;43.59;99554.13;4975463;28;6788;-76
2022/05/24 09:07:42;;;;;;;;;;;;;;;21.24;43.51;99568.03;4994504;28;6803;-76
2022/05/24 09:10:18;;;;;;;;;;;;;;;21.15;43.54;99566.38;5000088;28;8297;-76
2022/05/24 09:13:10;;;;;;;;;;;;;;;20.98;43.31;99571.72;4996756;28;6812;-75
2022/05/24 09:16:00;;;;;;;;;;;;;;;20.70;43.79;99578.84;4997611;28;6899;-75
2022/05/24 09:18:43;;;;;;;;;;;;;;;20.44;44.62;99587.69;4998964;28;7262;-75
2022/05/24 09:21:29;;;;;;;;;;;;;;;20.39;45.50;99579.91;5002453;28;7161;-76
2022/05/24 09:24:43;;;;;;;;;;;;;;;20.63;45.39;99580.63;4970448;28;6827;-76
2022/05/24 09:27:18;;;;;;;;;;;;;;;20.90;45.00;99574.41;4997564;28;7249;-76
2022/05/24 09:30:08;;;;;;;;;;;;;;;21.05;44.22;99580.34;4992197;28;7228;-76
2022/05/24 09:32:44;;;;;;;;;;;;;;;21.07;43.98;99596.84;4997364;28;6828;-76
2022/05/24 09:35:10;;;;;;;;;;;;;;;20.99;43.63;99591.69;4995864;28;6815;-76
2022/05/24 09:37:39;;;;;;;;;;;;;;;20.86;43.99;99600.47;5004748;28;7162;-75
2022/05/24 09:40:24;;;;;;;;;;;;;;;20.72;44.36;99596.19;4995435;28;6807;-76
2022/05/24 09:42:50;;;;;;;;;;;;;;;20.71;44.67;99598.81;4998067;28;6978;-76
2022/05/24 09:45:24;;;;;;;;;;;;;;;20.87;44.96;99607.41;4999465;28;6800;-76
2022/05/24 09:48:01;;;;;;;;;;;;;;;21.17;45.63;99597.63;4976265;28;6907;-76
2022/05/24 09:50:30;;;;;;;;;;;;;;;21.66;45.07;99606.72;4995538;28;7508;-76
2022/05/24 09:53:13;;;;;;;;;;;;;;;22.23;45.22;99602.63;4996872;28;7204;-76
2022/05/24 09:55:52;;;;;;;;;;;;;;;22.95;44.50;99601.63;5001780;28;7085;-76
2022/05/24 09:58:40;;;;;;;;;;;;;;;23.53;43.25;99602.44;4998650;28;6807;-76
2022/05/24 10:01:40;;;;;;;;;;;;;;;23.90;42.19;99606.09;5001607;28;7956;-76
2022/05/24 10:04:33;;;;;;;;;;;;;;;24.17;42.02;99608.19;4984570;28;7005;-76
2022/05/24 10:07:27;;;;;;;;;;;;;;;24.86;42.39;99608.44;5001010;28;7090;-76
2022/05/24 10:10:17;;;;;;;;;;;;;;;25.60;39.93;99608.41;4997823;28;6974;-76
2022/05/24 10:12:48;;;;;;;;;;;;;;;25.74;38.64;99600.16;4998130;28;7230;-76
2022/05/24 10:15:37;;;;;;;;;;;;;;;25.71;38.39;99610.69;4997544;28;6804;-76
2022/05/24 10:18:30;;;;;;;;;;;;;;;25.68;37.86;99618.66;5001133;28;6953;-76
2022/05/24 10:21:32;;;;;;;;;;;;;;;25.69;38.61;99612.53;4996646;28;6828;-76
2022/05/24 10:24:44;;;;;;;;;;;;;;;25.66;38.19;99625.72;4999234;28;7254;-76
2022/05/24 10:27:28;;;;;;;;;;;;;;;25.47;37.66;99620.94;4998937;28;6827;-76
2022/05/24 10:30:29;;;;;;;;;;;;;;;25.29;37.68;99618.78;5002145;28;7260;-76
2022/05/24 10:40:43;;;;;;;;;;;;;;;25.04;37.69;99625.50;5001822;28;6892;-76
2022/05/24 10:43:36;;;;;;;;;;;;;;;25.09;37.01;99626.25;5004455;28;6900;-76
2022/05/24 10:46:13;;;;;;;;;;;;;;;25.10;37.23;99641.06;5006463;28;7222;-76
2022/05/24 10:48:48;;;;;;;;;;;;;;;25.16;37.07;99633.97;5005837;28;7174;-76
2022/05/24 10:52:11;;;;;;;;;;;;;;;25.46;37.05;99618.34;5001079;28;7022;-76
2022/05/24 10:55:12;;;;;;;;;;;;;;;25.88;36.27;99625.13;4985989;28;7482;-77
2022/05/24 10:58:00;;;;;;;;;;;;;;;26.02;35.66;99632.63;5002727;28;7279;-77
2022/05/24 11:00:40;;;;;;;;;;;;;;;25.92;35.88;99630.25;4973548;28;6861;-76
2022/05/24 11:03:16;;;;;;;;;;;;;;;25.71;35.94;99622.97;5005738;28;7209;-76
2022/05/24 11:05:57;;;;;;;;;;;;;;;25.44;35.53;99625.41;5001279;28;7208;-74
2022/05/24 11:08:54;;;;;;;;;;;;;;;25.33;35.87;99626.53;4996897;28;7581;-75
2022/05/24 11:11:59;;;;;;;;;;;;;;;25.23;35.95;99633.75;4993243;28;6904;-75
2022/05/24 11:14:33;;;;;;;;;;;;;;;25.47;36.34;99635.81;4987624;28;7189;-75
2022/05/24 11:17:00;;;;;;;;;;;;;;;26.18;36.93;99626.03;4995268;28;6816;-75
2022/05/24 11:19:26;;;;;;;;;;;;;;;27.23;35.80;99620.22;4999958;28;6965;-76
2022/05/24 11:22:07;;;;;;;;;;;;;;;28.30;35.47;99616.50;5001750;28;7071;-76
2022/05/24 11:24:56;;;;;;;;;;;;;;;29.46;33.31;99608.38;5003295;28;7222;-76
2022/05/24 11:27:46;;;;;;;;;;;;;;;30.36;32.45;99616.69;5017800;28;6819;-76
2022/05/24 11:30:29;;;;;;;;;;;;;;;30.68;31.39;99621.41;4997742;28;7297;-76
2022/05/24 11:33:09;;;;;;;;;;;;;;;30.19;31.88;99622.78;5015677;28;7014;-76
2022/05/24 11:35:52;;;;;;;;;;;;;;;29.37;31.70;99629.84;4990179;28;6954;-76
2022/05/24 11:38:23;;;;;;;;;;;;;;;28.37;31.88;99641.66;4977449;28;6819;-76
2022/05/24 11:41:09;;;;;;;;;;;;;;;27.47;31.67;99644.84;5004195;28;6804;-75
2022/05/24 11:43:43;;;;;;;;;;;;;;;26.65;32.14;99650.09;5004181;28;6984;-75
2022/05/24 11:46:46;;;;;;;;;;;;;;;26.12;32.62;99644.56;4998457;28;7215;-75
2022/05/24 11:49:21;;;;;;;;;;;;;;;25.91;33.74;99644.28;4997285;28;7180;-75
2022/05/24 11:51:50;;;;;;;;;;;;;;;26.33;33.88;99639.63;4999164;28;6816;-75
2022/05/24 11:54:15;;;;;;;;;;;;;;;27.14;33.34;99637.19;4985954;28;6808;-75
2022/05/24 11:56:53;;;;;;;;;;;;;;;27.63;32.34;99644.34;4994023;28;7977;-76
2022/05/24 11:59:40;;;;;;;;;;;;;;;27.46;32.08;99648.38;4992491;28;7305;-76
2022/05/24 12:07:54;;;;;;;;;;;;;;;26.27;33.16;99666.06;4998902;28;6970;-75
2022/05/24 12:10:20;;;;;;;;;;;;;;;26.27;33.71;99666.06;4999144;28;6820;-75
2022/05/24 12:12:48;;;;;;;;;;;;;;;26.32;33.61;99675.56;4995789;28;7158;-75
2022/05/24 12:15:49;;;;;;;;;;;;;;;26.11;33.34;99678.75;5002949;28;7007;-75
2022/05/24 12:18:33;;;;;;;;;;;;;;;25.74;33.72;99675.38;4999457;28;7010;-75
2022/05/24 12:20:59;;;;;;;;;;;;;;;25.42;33.87;99674.41;4973565;28;7967;-75
2022/05/24 12:23:36;;;;;;;;;;;;;;;25.23;34.43;99677.50;4990182;28;7408;-75
2022/05/24 12:26:07;;;;;;;;;;;;;;;25.10;34.16;99677.75;5000141;28;6836;-75
2022/05/24 12:28:36;;;;;;;;;;;;;;;25.04;34.57;99683.16;5002763;28;7360;-75
2022/05/24 12:31:07;;;;;;;;;;;;;;;24.91;34.82;99693.06;4998826;28;7035;-75
2022/05/24 12:34:01;;;;;;;;;;;;;;;24.77;34.84;99689.84;4999908;28;6808;-75
2022/05/24 12:36:51;;;;;;;;;;;;;;;24.63;34.41;99698.88;4974175;28;8248;-75
2022/05/24 12:39:21;;;;;;;;;;;;;;;24.67;34.72;99691.81;4983538;28;7459;-75
2022/05/24 12:41:56;;;;;;;;;;;;;;;25.06;34.65;99683.13;4983825;28;6812;-75
2022/05/24 12:44:31;;;;;;;;;;;;;;;25.84;33.86;99678.63;4993316;28;6820;-75
2022/05/24 12:47:16;;;;;;;;;;;;;;;26.85;32.81;99686.28;5000749;28;6978;-75
2022/05/24 12:49:47;;;;;;;;;;;;;;;27.51;32.01;99678.00;4994829;28;6824;-75
2022/05/24 12:52:23;;;;;;;;;;;;;;;28.14;31.16;99682.00;5000379;28;6800;-75
2022/05/24 12:54:53;;;;;;;;;;;;;;;28.51;30.52;99679.81;4996371;28;7136;-75
2022/05/24 12:57:41;;;;;;;;;;;;;;;28.60;29.69;99684.75;5000099;28;7065;-75
2022/05/24 13:00:20;;;;;;;;;;;;;;;28.89;30.48;99690.69;5002362;28;6827;-75
2022/05/24 13:02:49;;;;;;;;;;;;;;;29.32;29.81;99682.81;4996090;28;6978;-76
2022/05/24 13:05:29;;;;;;;;;;;;;;;29.82;29.71;99679.88;4989915;28;7240;-75
2022/05/24 13:07:54;;;;;;;;;;;;;;;30.28;29.16;99680.47;4997089;28;7023;-75
2022/05/24 13:10:25;;;;;;;;;;;;;;;30.66;27.97;99679.63;5000803;28;7205;-75
2022/05/24 13:12:55;;;;;;;;;;;;;;;31.02;28.16;99677.97;4999263;28;7206;-75
2022/05/24 13:15:29;;;;;;;;;;;;;;;31.27;27.57;99679.41;4992879;28;7168;-74
2022/05/24 13:18:06;;;;;;;;;;;;;;;31.33;27.32;99679.09;4996414;28;7063;-75
2022/05/24 13:20:51;;;;;;;;;;;;;;;31.37;26.89;99678.00;5003919;28;6985;-75
2022/05/24 13:23:26;;;;;;;;;;;;;;;31.48;27.87;99677.47;4998766;28;6990;-75
2022/05/24 13:25:57;;;;;;;;;;;;;;;31.73;27.17;99671.75;4998373;28;6812;-75
2022/05/24 13:28:59;;;;;;;;;;;;;;;31.75;26.89;99668.19;4994159;28;7320;-75
2022/05/24 13:34:33;;;;;;;;;;;;;;;30.35;27.01;99695.13;5005126;28;6832;-75
2022/05/24 13:37:08;;;;;;;;;;;;;;;30.24;27.21;99692.13;5001053;28;6808;-75
2022/05/24 13:39:39;;;;;;;;;;;;;;;30.12;26.80;99696.19;4997922;28;6903;-75
2022/05/24 14:09:28;;;;;;;;;;;;;;;14.48;50.27;99800.97;5022192;28;6741;-75
2022/05/24 14:11:56;;;;;;;;;;;;;;;15.54;50.99;99803.09;5003286;28;7069;-75
2022/05/24 14:14:24;;;;;;;;;;;;;;;16.52;50.02;99795.25;5005986;28;7311;-76
2022/05/24 14:16:52;;;;;;;;;;;;;;;17.29;49.37;99801.38;5033236;28;7019;-76
2022/05/24 14:19:19;;;;;;;;;;;;;;;17.85;48.26;99807.09;4974848;28;6816;-76
2022/05/24 14:21:46;;;;;;;;;;;;;;;18.28;47.28;99806.59;5019196;28;6903;-76
2022/05/24 14:24:18;;;;;;;;;;;;;;;18.60;47.12;99812.00;4990605;28;7142;-76
2022/05/24 14:26:53;;;;;;;;;;;;;;;18.91;47.03;99816.44;4989832;28;6824;-76
2022/05/24 14:29:20;;;;;;;;;;;;;;;19.14;47.31;99820.91;4988620;28;7876;-76
2022/05/24 14:31:45;;;;;;;;;;;;;;;19.36;47.54;99823.56;5005624;28;8059;-74
2022/05/24 14:34:13;;;;;;;;;;;;;;;19.54;47.04;99825.34;4981869;28;6956;-74
2022/05/24 14:36:40;;;;;;;;;;;;;;;19.76;47.25;99836.63;4990877;28;7203;-75
2022/05/24 14:39:08;;;;;;;;;;;;;;;20.10;48.18;99833.22;4992067;28;7972;-75
2022/05/24 14:41:36;;;;;;;;;;;;;;;20.61;47.93;99827.06;4963339;28;6997;-74
2022/05/24 14:44:10;;;;;;;;;;;;;;;21.03;47.50;99832.16;5003046;28;7267;-74
2022/05/24 14:46:39;;;;;;;;;;;;;;;21.30;46.29;99831.19;4988730;28;7121;-74